Time;durP1;ratioP1;P1;durP2;ratioP2;P2;SDS_P1;SDS_P2;PMS_P1;PMS_P2;Temp;Humidity;BMP_temperature;BMP_pressure;BME280_temperature;BME280_humidity;BME280_pressure;Samples;Min_cycle;Max_cycle;Signal;HPM_P1;HPM_P2
2021/03/22 00:02:44;;;;;;;;;;;3.70;99.90;;;;;;13131379;22;19989;-87
2021/03/22 00:07:47;;;;;;;;;;;5.40;99.90;;;;;;13129957;22;19919;-87
2021/03/22 00:12:49;;;;;;;;;;;3.50;99.90;;;;;;13130928;22;19925;-87
2021/03/22 00:18:02;;;;;;;;;;;3.50;99.90;;;;;;13157881;22;19997;-86
2021/03/22 00:23:08;;;;;;;;;;;3.50;99.90;;;;;;13157825;22;19925;-87
2021/03/22 00:28:11;;;;;;;;;;;3.90;99.90;;;;;;13155103;22;19953;-86
2021/03/22 00:33:13;;;;;;;;;;;3.50;99.90;;;;;;13155183;22;19918;-87
2021/03/22 00:38:15;;;;;;;;;;;3.50;99.90;;;;;;13182835;22;19971;-87
2021/03/22 00:43:16;;;;;;;;;;;3.50;99.90;;;;;;13130627;22;19918;-87
2021/03/22 00:48:27;;;;;;;;;;;4.50;99.90;;;;;;13156871;22;19925;-86
2021/03/22 00:53:29;;;;;;;;;;;4.30;99.90;;;;;;13154720;22;20255;-87
2021/03/22 00:58:31;;;;;;;;;;;3.80;99.90;;;;;;13182392;22;20228;-86
2021/03/22 01:03:33;;;;;;;;;;;5.90;99.90;;;;;;13154846;22;19918;-86
2021/03/22 01:08:36;;;;;;;;;;;3.60;99.90;;;;;;13154395;22;19918;-86
2021/03/22 01:13:42;;;;;;;;;;;4.50;99.90;;;;;;13155921;22;19960;-86
2021/03/22 01:18:52;;;;;;;;;;;4.30;99.90;;;;;;13182716;22;19925;-86
2021/03/22 01:23:53;;;;;;;;;;;4.10;99.90;;;;;;13183546;22;19949;-86
2021/03/22 01:28:55;;;;;;;;;;;3.40;99.90;;;;;;13155009;22;19918;-86
2021/03/22 01:33:57;;;;;;;;;;;3.30;99.90;;;;;;13154960;22;20295;-86
2021/03/22 01:39:05;;;;;;;;;;;3.30;99.90;;;;;;13155358;22;20354;-86
2021/03/22 01:44:12;;;;;;;;;;;3.20;99.90;;;;;;13154807;22;19953;-86
2021/03/22 01:49:14;;;;;;;;;;;3.50;99.90;;;;;;13180873;22;19963;-86
2021/03/22 01:54:15;;;;;;;;;;;5.40;99.90;;;;;;13182696;22;19918;-85
2021/03/22 01:59:20;;;;;;;;;;;3.10;99.90;;;;;;13154041;22;19918;-86
2021/03/22 02:04:22;;;;;;;;;;;3.00;99.90;;;;;;13157836;22;20251;-86
2021/03/22 02:09:23;;;;;;;;;;;3.00;99.90;;;;;;13188730;22;19993;-86
2021/03/22 02:14:25;;;;;;;;;;;4.10;99.90;;;;;;13188708;22;19954;-86
2021/03/22 02:19:55;;;;;;;;;;;2.90;99.90;;;;;;13164158;22;19926;-86
2021/03/22 02:25:23;;;;;;;;;;;3.00;99.90;;;;;;13189856;22;19949;-86
2021/03/22 02:31:14;;;;;;;;;;;3.10;99.90;;;;;;13136252;22;19910;-86
2021/03/22 02:36:20;;;;;;;;;;;3.10;99.90;;;;;;13160721;22;20241;-85
2021/03/22 02:41:23;;;;;;;;;;;3.10;99.90;;;;;;13190547;22;19945;-85
2021/03/22 02:46:26;;;;;;;;;;;3.00;99.90;;;;;;13189444;22;20281;-85
2021/03/22 02:51:45;;;;;;;;;;;2.90;99.90;;;;;;13163003;22;19918;-85
2021/03/22 02:56:52;;;;;;;;;;;2.90;99.90;;;;;;13189642;22;20311;-86
2021/03/22 03:02:01;;;;;;;;;;;2.90;99.90;;;;;;13189376;22;20357;-86
2021/03/22 03:07:06;;;;;;;;;;;2.90;99.90;;;;;;13161969;22;19918;-86
2021/03/22 03:12:12;;;;;;;;;;;2.90;99.90;;;;;;13189947;22;19985;-88
2021/03/22 03:17:14;;;;;;;;;;;3.20;99.90;;;;;;13159717;22;19942;-86
2021/03/22 03:22:17;;;;;;;;;;;3.40;99.90;;;;;;13158172;22;20227;-86
2021/03/22 03:27:18;;;;;;;;;;;3.60;99.90;;;;;;13185778;22;19922;-86
2021/03/22 03:32:20;;;;;;;;;;;3.80;99.90;;;;;;13186182;22;19918;-86
2021/03/22 03:37:22;;;;;;;;;;;3.80;99.90;;;;;;13185457;22;20335;-86
2021/03/22 03:42:23;;;;;;;;;;;3.90;99.90;;;;;;13157498;22;20317;-86
2021/03/22 03:47:25;;;;;;;;;;;3.90;99.90;;;;;;13157483;22;19996;-86
2021/03/22 03:52:26;;;;;;;;;;;4.00;99.90;;;;;;13158298;22;19922;-86
2021/03/22 03:57:27;;;;;;;;;;;4.00;99.90;;;;;;13132236;22;19918;-86
2021/03/22 04:02:29;;;;;;;;;;;4.00;99.90;;;;;;13131515;22;20414;-86
2021/03/22 04:07:31;;;;;;;;;;;4.10;99.90;;;;;;13156866;22;19931;-86
2021/03/22 04:12:32;;;;;;;;;;;4.80;99.90;;;;;;13183846;22;19942;-86
2021/03/22 04:17:34;;;;;;;;;;;4.30;99.90;;;;;;13183947;22;19918;-86
2021/03/22 04:22:35;;;;;;;;;;;4.10;99.90;;;;;;13156968;22;19922;-86
2021/03/22 04:27:36;;;;;;;;;;;4.10;99.90;;;;;;13184090;22;20008;-86
2021/03/22 04:32:37;;;;;;;;;;;4.10;99.90;;;;;;13185131;22;19924;-86
2021/03/22 04:37:39;;;;;;;;;;;4.20;99.90;;;;;;13130700;22;20331;-86
2021/03/22 04:42:40;;;;;;;;;;;5.60;99.90;;;;;;13130658;22;19940;-86
2021/03/22 04:47:42;;;;;;;;;;;4.20;99.90;;;;;;13157288;22;19919;-86
2021/03/22 04:52:44;;;;;;;;;;;6.40;99.90;;;;;;13154423;22;19948;-86
2021/03/22 04:57:46;;;;;;;;;;;4.30;99.90;;;;;;13182091;22;19922;-86
2021/03/22 05:02:47;;;;;;;;;;;4.30;99.90;;;;;;13155554;22;19922;-86
2021/03/22 05:07:50;;;;;;;;;;;4.30;99.90;;;;;;13183045;22;19922;-86
2021/03/22 05:12:51;;;;;;;;;;;6.00;99.90;;;;;;13184161;22;19981;-86
2021/03/22 05:17:53;;;;;;;;;;;4.30;99.90;;;;;;13156686;22;19926;-86
2021/03/22 05:22:54;;;;;;;;;;;4.30;99.90;;;;;;13155747;22;19926;-86
2021/03/22 05:27:56;;;;;;;;;;;5.20;99.90;;;;;;13130481;22;19925;-86
2021/03/22 05:32:58;;;;;;;;;;;4.30;99.90;;;;;;13183807;22;19993;-86
2021/03/22 05:38:00;;;;;;;;;;;4.30;99.90;;;;;;13183507;22;19918;-86
2021/03/22 05:43:05;;;;;;;;;;;4.30;99.90;;;;;;13156279;22;19925;-86
2021/03/22 05:48:25;;;;;;;;;;;4.30;99.90;;;;;;13155964;22;19919;-86
2021/03/22 05:53:39;;;;;;;;;;;4.40;99.90;;;;;;13182611;22;20656;-86
2021/03/22 05:59:02;;;;;;;;;;;4.40;99.90;;;;;;13156012;22;19992;-86
2021/03/22 06:04:06;;;;;;;;;;;4.50;99.90;;;;;;13180846;22;19965;-86
2021/03/22 06:09:16;;;;;;;;;;;4.50;99.90;;;;;;13180511;22;20216;-86
2021/03/22 06:14:22;;;;;;;;;;;6.00;99.90;;;;;;13154423;22;19977;-86
2021/03/22 06:19:23;;;;;;;;;;;4.60;99.90;;;;;;13155203;22;19919;-86
2021/03/22 06:24:26;;;;;;;;;;;6.40;99.90;;;;;;13183566;22;19925;-86
2021/03/22 06:29:30;;;;;;;;;;;4.60;99.90;;;;;;13182211;22;20333;-86
2021/03/22 06:34:49;;;;;;;;;;;4.60;99.90;;;;;;13182764;22;19948;-86
2021/03/22 06:40:09;;;;;;;;;;;4.30;99.90;;;;;;13182194;22;19989;-86
2021/03/22 06:45:30;;;;;;;;;;;4.70;99.90;;;;;;13154502;22;19993;-86
2021/03/22 06:50:31;;;;;;;;;;;4.80;99.90;;;;;;13181296;22;20313;-86
2021/03/22 06:55:35;;;;;;;;;;;4.90;99.90;;;;;;13158905;22;20383;-86
2021/03/22 07:00:36;;;;;;;;;;;4.80;99.90;;;;;;13159226;22;19945;-86
2021/03/22 07:05:39;;;;;;;;;;;4.80;99.90;;;;;;13133533;22;19922;-86
2021/03/22 07:10:42;;;;;;;;;;;5.20;99.90;;;;;;13185807;22;19953;-86
2021/03/22 07:15:44;;;;;;;;;;;5.00;99.90;;;;;;13159043;22;19953;-86
2021/03/22 07:20:47;;;;;;;;;;;5.00;99.90;;;;;;13184413;22;19918;-86
2021/03/22 07:25:54;;;;;;;;;;;5.10;99.90;;;;;;13185907;22;19925;-85
2021/03/22 07:31:12;;;;;;;;;;;5.00;99.90;;;;;;13158603;22;19919;-85
2021/03/22 07:36:34;;;;;;;;;;;5.10;99.90;;;;;;13157777;22;19990;-85
2021/03/22 07:41:40;;;;;;;;;;;5.20;99.90;;;;;;13158330;22;19918;-86
2021/03/22 07:47:00;;;;;;;;;;;5.20;99.90;;;;;;13185311;22;19996;-86
2021/03/22 07:52:14;;;;;;;;;;;5.40;99.90;;;;;;13185861;22;19922;-86
2021/03/22 07:57:28;;;;;;;;;;;5.40;99.90;;;;;;13157006;22;19985;-86
2021/03/22 08:02:30;;;;;;;;;;;5.40;99.90;;;;;;13157002;22;19918;-86
2021/03/22 08:07:35;;;;;;;;;;;5.40;99.90;;;;;;13184674;22;19925;-86
2021/03/22 08:12:40;;;;;;;;;;;5.50;99.90;;;;;;13184823;22;20331;-86
2021/03/22 08:17:57;;;;;;;;;;;5.50;99.90;;;;;;13157302;22;20232;-86
2021/03/22 08:23:18;;;;;;;;;;;5.50;99.90;;;;;;13184598;22;19971;-86
2021/03/22 08:28:20;;;;;;;;;;;5.50;99.90;;;;;;13184155;22;20005;-85
2021/03/22 08:33:34;;;;;;;;;;;5.60;99.90;;;;;;13156094;22;20323;-85
2021/03/22 08:38:44;;;;;;;;;;;6.00;99.90;;;;;;13157722;22;19922;-86
2021/03/22 08:43:58;;;;;;;;;;;6.30;99.90;;;;;;13155855;22;19922;-86
2021/03/22 08:49:00;;;;;;;;;;;6.30;99.90;;;;;;13154126;22;19922;-85
2021/03/22 08:54:02;;;;;;;;;;;6.70;99.90;;;;;;13155072;22;19946;-85
2021/03/22 08:59:08;;;;;;;;;;;7.30;99.90;;;;;;13180822;22;19919;-86
2021/03/22 09:04:23;;;;;;;;;;;6.60;99.90;;;;;;13154729;22;19989;-85
2021/03/22 09:09:29;;;;;;;;;;;6.60;99.90;;;;;;13155518;22;19963;-86
2021/03/22 09:14:43;;;;;;;;;;;6.90;99.90;;;;;;13182699;22;19934;-86
2021/03/22 09:19:45;;;;;;;;;;;7.40;99.90;;;;;;13156134;22;19918;-86
2021/03/22 09:24:55;;;;;;;;;;;7.60;99.90;;;;;;13157348;22;20335;-86
2021/03/22 09:29:56;;;;;;;;;;;8.40;99.90;;;;;;13155195;22;20002;-87
2021/03/22 09:34:58;;;;;;;;;;;9.20;99.90;;;;;;13182709;22;20315;-86
2021/03/22 09:40:00;;;;;;;;;;;9.40;99.90;;;;;;13155405;22;20632;-87
2021/03/22 09:45:09;;;;;;;;;;;9.00;99.90;;;;;;13155625;22;19941;-87
2021/03/22 09:50:10;;;;;;;;;;;8.90;99.90;;;;;;13155109;22;20212;-87
2021/03/22 09:55:26;;;;;;;;;;;10.40;99.90;;;;;;13182121;22;19918;-87
2021/03/22 10:00:27;;;;;;;;;;;10.30;99.90;;;;;;13183171;22;19972;-86
2021/03/22 10:05:31;;;;;;;;;;;9.40;99.90;;;;;;13156289;22;20349;-87
2021/03/22 10:10:38;;;;;;;;;;;8.90;99.90;;;;;;13155068;22;19924;-87
2021/03/22 10:15:55;;;;;;;;;;;8.50;99.90;;;;;;13155842;22;19989;-87
2021/03/22 10:21:16;;;;;;;;;;;8.00;99.90;;;;;;13182769;22;20001;-88
2021/03/22 10:26:20;;;;;;;;;;;7.80;99.90;;;;;;13154257;22;19955;-88
2021/03/22 10:31:23;;;;;;;;;;;9.00;99.90;;;;;;13158756;22;19922;-88
2021/03/22 10:36:29;;;;;;;;;;;7.70;99.90;;;;;;13157849;22;19918;-87
2021/03/22 10:41:39;;;;;;;;;;;7.80;99.90;;;;;;13184758;22;20010;-88
2021/03/22 10:46:41;;;;;;;;;;;8.30;99.90;;;;;;13158898;22;19925;-87
2021/03/22 10:51:44;;;;;;;;;;;9.80;99.90;;;;;;13160540;22;19940;-88
2021/03/22 10:56:48;;;;;;;;;;;9.10;99.90;;;;;;13158391;22;20295;-88
2021/03/22 11:01:51;;;;;;;;;;;8.60;99.90;;;;;;13159097;22;19918;-88
2021/03/22 11:06:55;;;;;;;;;;;9.80;99.90;;;;;;13157918;22;19919;-88
2021/03/22 11:12:00;;;;;;;;;;;12.00;99.90;;;;;;13158918;22;19926;-88
2021/03/22 11:17:11;;;;;;;;;;;8.60;99.90;;;;;;13155946;22;19924;-87
2021/03/22 11:22:23;;;;;;;;;;;8.60;99.90;;;;;;13158735;22;19918;-88
2021/03/22 11:27:26;;;;;;;;;;;8.50;99.90;;;;;;13157366;22;19961;-89
2021/03/22 11:32:29;;;;;;;;;;;8.20;99.90;;;;;;13185883;22;19985;-88
2021/03/22 11:37:32;;;;;;;;;;;9.40;99.90;;;;;;13152396;22;19918;-88
2021/03/22 11:42:50;;;;;;;;;;;7.80;99.90;;;;;;13177529;22;19922;-87
2021/03/22 11:47:51;;;;;;;;;;;7.90;99.90;;;;;;13158033;22;20060;-88
2021/03/22 11:53:02;;;;;;;;;;;8.90;99.90;;;;;;13153889;22;19981;-87
2021/03/22 11:58:04;;;;;;;;;;;8.00;99.90;;;;;;13155220;22;20331;-88
2021/03/22 12:03:13;;;;;;;;;;;8.10;99.90;;;;;;13149692;22;19922;-88
2021/03/22 12:08:29;;;;;;;;;;;8.20;99.90;;;;;;13149918;22;19956;-88
2021/03/22 12:13:31;;;;;;;;;;;8.50;99.90;;;;;;13151485;22;20032;-88
2021/03/22 12:18:35;;;;;;;;;;;8.60;99.90;;;;;;13155165;22;20330;-88
2021/03/22 12:23:36;;;;;;;;;;;8.40;99.90;;;;;;13154833;22;19922;-88
2021/03/22 12:28:53;;;;;;;;;;;8.50;99.90;;;;;;13150930;22;20327;-88
2021/03/22 12:33:55;;;;;;;;;;;8.80;99.90;;;;;;13183241;22;20307;-88
2021/03/22 12:38:57;;;;;;;;;;;8.80;99.90;;;;;;13156689;22;19918;-89
2021/03/22 12:44:03;;;;;;;;;;;9.00;99.90;;;;;;13156070;22;19957;-89
2021/03/22 12:49:05;;;;;;;;;;;9.10;99.90;;;;;;13156575;22;19925;-88
2021/03/22 12:54:06;;;;;;;;;;;9.00;99.90;;;;;;13182933;22;19957;-89
2021/03/22 12:59:21;;;;;;;;;;;9.00;99.90;;;;;;13156522;22;19989;-88
2021/03/22 13:04:25;;;;;;;;;;;9.90;99.90;;;;;;13154782;22;20325;-89
2021/03/22 13:09:27;;;;;;;;;;;8.80;99.90;;;;;;13183625;22;19919;-88
2021/03/22 13:14:28;;;;;;;;;;;8.50;99.90;;;;;;13130452;22;19941;-89
2021/03/22 13:19:30;;;;;;;;;;;8.60;99.90;;;;;;13156210;22;19981;-89
2021/03/22 13:24:31;;;;;;;;;;;8.60;99.90;;;;;;13129389;22;20295;-88
2021/03/22 13:29:32;;;;;;;;;;;8.70;99.90;;;;;;13129971;22;19961;-88
2021/03/22 13:34:34;;;;;;;;;;;8.70;99.90;;;;;;13128736;22;20278;-92
2021/03/22 13:39:36;;;;;;;;;;;8.90;99.90;;;;;;13128465;22;20254;-92
2021/03/22 13:44:37;;;;;;;;;;;9.20;99.90;;;;;;13156890;22;19922;-92
2021/03/22 13:49:39;;;;;;;;;;;9.30;99.90;;;;;;13128453;22;19922;-93
2021/03/22 13:54:40;;;;;;;;;;;9.30;99.90;;;;;;13152694;22;19925;-91
2021/03/22 13:59:41;;;;;;;;;;;9.20;99.90;;;;;;13153470;22;19918;-91
2021/03/22 14:04:43;;;;;;;;;;;9.20;99.90;;;;;;13180544;22;20296;-91
2021/03/22 14:09:44;;;;;;;;;;;6.60;99.90;;;;;;13156045;22;19918;-92
2021/03/22 14:14:47;;;;;;;;;;;9.40;99.90;;;;;;13153951;22;19941;-93
2021/03/22 14:19:49;;;;;;;;;;;10.70;99.90;;;;;;13152255;22;19938;-93
2021/03/22 14:24:50;;;;;;;;;;;9.70;99.90;;;;;;13126678;22;19967;-92
2021/03/22 14:29:55;;;;;;;;;;;9.70;99.90;;;;;;13151749;22;19918;-94
2021/03/22 14:34:57;;;;;;;;;;;9.50;99.90;;;;;;13187702;22;19922;-83
2021/03/22 14:40:00;;;;;;;;;;;9.10;99.90;;;;;;13180468;22;19918;-83
2021/03/22 14:45:02;;;;;;;;;;;9.90;99.90;;;;;;13181719;22;19922;-82
2021/03/22 14:50:05;;;;;;;;;;;9.00;99.90;;;;;;13179448;22;19932;-82
2021/03/22 14:55:07;;;;;;;;;;;9.00;99.90;;;;;;13180360;22;20327;-83
2021/03/22 15:00:17;;;;;;;;;;;9.10;99.90;;;;;;13180863;22;19929;-83
2021/03/22 15:05:20;;;;;;;;;;;9.30;99.90;;;;;;13182554;22;19918;-83
2021/03/22 15:10:22;;;;;;;;;;;9.30;99.90;;;;;;13180310;22;20383;-83
2021/03/22 15:15:25;;;;;;;;;;;9.30;99.90;;;;;;13184320;22;20291;-83
2021/03/22 15:20:29;;;;;;;;;;;9.20;99.90;;;;;;13179962;22;19926;-82
2021/03/22 15:25:34;;;;;;;;;;;9.10;99.90;;;;;;13184282;22;19985;-82
2021/03/22 15:30:36;;;;;;;;;;;9.30;99.90;;;;;;13183245;22;19919;-82
2021/03/22 15:35:38;;;;;;;;;;;9.10;99.90;;;;;;13178295;22;20305;-83
2021/03/22 15:40:39;;;;;;;;;;;9.00;99.90;;;;;;13185925;22;19918;-83
2021/03/22 15:45:40;;;;;;;;;;;8.80;99.90;;;;;;13156945;22;19965;-82
2021/03/22 15:50:42;;;;;;;;;;;8.60;99.90;;;;;;13156975;22;20322;-83
2021/03/22 15:55:43;;;;;;;;;;;8.70;99.90;;;;;;13181488;22;19946;-82
2021/03/22 16:00:44;;;;;;;;;;;8.60;99.90;;;;;;13184289;22;19918;-82
2021/03/22 16:05:47;;;;;;;;;;;8.60;99.90;;;;;;13184317;22;20359;-82
2021/03/22 16:10:48;;;;;;;;;;;8.50;99.90;;;;;;13183999;22;19998;-82
2021/03/22 16:15:50;;;;;;;;;;;8.50;99.90;;;;;;13184168;22;19997;-83
2021/03/22 16:20:53;;;;;;;;;;;8.60;99.90;;;;;;13180363;22;19929;-83
2021/03/22 16:25:54;;;;;;;;;;;8.50;99.90;;;;;;13150069;22;20001;-83
2021/03/22 16:30:56;;;;;;;;;;;8.40;99.90;;;;;;13174494;22;20001;-83
2021/03/22 16:36:00;;;;;;;;;;;8.30;99.90;;;;;;13174788;22;19928;-83
2021/03/22 16:41:03;;;;;;;;;;;8.40;99.90;;;;;;13183710;22;19989;-83
2021/03/22 16:46:05;;;;;;;;;;;8.30;99.90;;;;;;13182803;22;19925;-83
2021/03/22 16:51:07;;;;;;;;;;;8.10;99.90;;;;;;13182957;22;19922;-83
2021/03/22 16:56:09;;;;;;;;;;;8.10;99.90;;;;;;13183321;22;20283;-83
2021/03/22 17:01:11;;;;;;;;;;;8.60;99.90;;;;;;13181546;22;19925;-83
2021/03/22 17:06:12;;;;;;;;;;;8.40;99.90;;;;;;13180834;22;19971;-83
2021/03/22 17:11:14;;;;;;;;;;;8.30;99.90;;;;;;13180220;22;20305;-83
2021/03/22 17:16:17;;;;;;;;;;;10.10;99.90;;;;;;13180103;22;20250;-83
2021/03/22 17:21:19;;;;;;;;;;;7.90;99.90;;;;;;13182793;22;19918;-83
2021/03/22 17:26:20;;;;;;;;;;;8.40;99.90;;;;;;13183197;22;19949;-83
2021/03/22 17:31:21;;;;;;;;;;;7.90;99.90;;;;;;13155452;22;19999;-83
2021/03/22 17:36:23;;;;;;;;;;;8.80;99.90;;;;;;13182990;22;19918;-83
2021/03/22 17:41:24;;;;;;;;;;;9.20;99.90;;;;;;13182128;22;20350;-83
2021/03/22 17:46:26;;;;;;;;;;;10.30;99.90;;;;;;13154296;22;19945;-83
2021/03/22 17:51:27;;;;;;;;;;;10.10;99.90;;;;;;13182195;22;19957;-83
2021/03/22 17:56:29;;;;;;;;;;;7.60;99.90;;;;;;13180892;22;20001;-83
2021/03/22 18:01:33;;;;;;;;;;;7.50;99.90;;;;;;13178767;22;19926;-83
2021/03/22 18:06:35;;;;;;;;;;;7.40;99.90;;;;;;13179587;22;20302;-83
2021/03/22 18:11:37;;;;;;;;;;;8.60;99.90;;;;;;13181245;22;19922;-83
2021/03/22 18:16:38;;;;;;;;;;;7.30;99.90;;;;;;13181598;22;19953;-83
2021/03/22 18:21:40;;;;;;;;;;;8.00;99.90;;;;;;13181556;22;19990;-83
2021/03/22 18:26:41;;;;;;;;;;;8.40;99.90;;;;;;13181064;22;19946;-83
2021/03/22 18:31:55;;;;;;;;;;;7.20;99.90;;;;;;13180574;22;19997;-83
2021/03/22 18:36:58;;;;;;;;;;;7.20;99.90;;;;;;13182302;22;19918;-83
2021/03/22 18:41:59;;;;;;;;;;;7.20;99.90;;;;;;13183071;22;19986;-83
2021/03/22 18:47:00;;;;;;;;;;;7.10;99.90;;;;;;13183603;22;19926;-84
2021/03/22 18:52:02;;;;;;;;;;;7.10;99.90;;;;;;13185668;22;19929;-83
2021/03/22 18:57:03;;;;;;;;;;;7.00;99.90;;;;;;13182343;22;19949;-83
2021/03/22 19:02:14;;;;;;;;;;;7.00;99.90;;;;;;13185924;22;19918;-83
2021/03/22 19:07:16;;;;;;;;;;;7.00;99.90;;;;;;13183881;22;19922;-83
2021/03/22 19:12:17;;;;;;;;;;;7.00;99.90;;;;;;13154358;22;19997;-83
2021/03/22 19:17:18;;;;;;;;;;;8.00;99.90;;;;;;13178380;22;19985;-83
2021/03/22 19:22:20;;;;;;;;;;;6.90;99.90;;;;;;13183969;22;19997;-83
2021/03/22 19:27:21;;;;;;;;;;;5.70;99.90;;;;;;13182015;22;19922;-83
2021/03/22 19:32:38;;;;;;;;;;;6.90;99.90;;;;;;13182562;22;19918;-83
2021/03/22 19:37:40;;;;;;;;;;;6.70;99.90;;;;;;13184717;22;19972;-83
2021/03/22 19:42:42;;;;;;;;;;;9.20;99.90;;;;;;13184693;22;19985;-83
2021/03/22 19:47:43;;;;;;;;;;;8.60;99.90;;;;;;13182617;22;20327;-83
2021/03/22 19:52:45;;;;;;;;;;;6.40;99.90;;;;;;13184145;22;19925;-83
2021/03/22 19:57:47;;;;;;;;;;;6.00;99.90;;;;;;13183878;22;20635;-83
2021/03/22 20:03:01;;;;;;;;;;;7.00;99.90;;;;;;13184489;22;19926;-83
2021/03/22 20:08:04;;;;;;;;;;;5.60;99.90;;;;;;13178283;22;19922;-83
2021/03/22 20:13:08;;;;;;;;;;;5.50;99.90;;;;;;13182278;22;19953;-83
2021/03/22 20:18:10;;;;;;;;;;;5.30;99.90;;;;;;13183551;22;19918;-83
2021/03/22 20:23:19;;;;;;;;;;;5.20;99.90;;;;;;13183618;22;19930;-83
2021/03/22 20:28:23;;;;;;;;;;;5.10;99.90;;;;;;13182049;22;19950;-83
2021/03/22 20:33:29;;;;;;;;;;;4.80;99.90;;;;;;13177587;22;19956;-83
2021/03/22 20:38:32;;;;;;;;;;;4.70;99.90;;;;;;13181399;22;19926;-83
2021/03/22 20:43:34;;;;;;;;;;;4.50;99.90;;;;;;13176441;22;20000;-83
2021/03/22 20:48:36;;;;;;;;;;;4.30;99.90;;;;;;13178854;22;19918;-89
2021/03/22 20:53:37;;;;;;;;;;;4.80;99.90;;;;;;13156416;22;19968;-89
2021/03/22 20:58:39;;;;;;;;;;;4.20;99.90;;;;;;13129300;22;19918;-89
2021/03/22 21:03:47;;;;;;;;;;;4.00;99.90;;;;;;13131862;22;20359;-89
2021/03/22 21:08:49;;;;;;;;;;;7.10;99.90;;;;;;13154592;22;19918;-89
2021/03/22 21:13:51;;;;;;;;;;;4.10;99.90;;;;;;13155045;22;19918;-89
2021/03/22 21:18:53;;;;;;;;;;;2.70;99.90;;;;;;13156963;22;19919;-90
2021/03/22 21:23:54;;;;;;;;;;;5.10;99.90;;;;;;13158355;22;19918;-90
2021/03/22 21:28:55;;;;;;;;;;;3.80;99.90;;;;;;13130884;22;19940;-91
2021/03/22 21:34:11;;;;;;;;;;;3.60;99.90;;;;;;13137648;22;20300;-91
2021/03/22 21:39:12;;;;;;;;;;;3.50;99.90;;;;;;13131312;22;19941;-90
2021/03/22 21:44:14;;;;;;;;;;;7.70;99.90;;;;;;13131813;22;19941;-90
2021/03/22 21:49:15;;;;;;;;;;;6.30;99.90;;;;;;13156228;22;20330;-90
2021/03/22 21:54:16;;;;;;;;;;;6.80;99.90;;;;;;13130406;22;20289;-90
2021/03/22 21:59:18;;;;;;;;;;;3.30;99.90;;;;;;13156251;22;19941;-90
2021/03/22 22:04:32;;;;;;;;;;;3.10;99.90;;;;;;13160864;22;19918;-90
2021/03/22 22:09:33;;;;;;;;;;;6.10;99.90;;;;;;13132108;22;19918;-90
2021/03/22 22:14:35;;;;;;;;;;;3.10;99.90;;;;;;13156205;22;19918;-90
2021/03/22 22:19:36;;;;;;;;;;;5.60;99.90;;;;;;13157303;22;19950;-90
2021/03/22 22:24:38;;;;;;;;;;;3.00;99.90;;;;;;13160858;22;19944;-90
2021/03/22 22:29:40;;;;;;;;;;;6.00;99.90;;;;;;13136820;22;19996;-90
2021/03/22 22:34:54;;;;;;;;;;;5.50;99.90;;;;;;13163839;22;19918;-90
2021/03/22 22:39:55;;;;;;;;;;;2.80;99.90;;;;;;13134919;22;20228;-91
2021/03/22 22:44:56;;;;;;;;;;;6.40;99.90;;;;;;13134049;22;19918;-90
2021/03/22 22:49:57;;;;;;;;;;;3.00;99.90;;;;;;13159572;22;19918;-89
2021/03/22 22:54:59;;;;;;;;;;;1.40;99.90;;;;;;13135025;22;19968;-90
2021/03/22 23:00:00;;;;;;;;;;;2.60;99.90;;;;;;13134028;22;19922;-90
2021/03/22 23:05:19;;;;;;;;;;;2.70;99.90;;;;;;13163366;22;20275;-89
2021/03/22 23:10:21;;;;;;;;;;;5.30;99.90;;;;;;13160311;22;19945;-90
2021/03/22 23:15:24;;;;;;;;;;;2.80;99.90;;;;;;13133751;22;19986;-90
2021/03/22 23:20:27;;;;;;;;;;;3.20;99.90;;;;;;13159509;22;19925;-90
2021/03/22 23:25:29;;;;;;;;;;;2.90;99.90;;;;;;13134245;22;19925;-90
2021/03/22 23:30:30;;;;;;;;;;;3.10;99.90;;;;;;13160104;22;19994;-90
2021/03/22 23:35:49;;;;;;;;;;;6.20;99.90;;;;;;13140260;22;20339;-90
2021/03/22 23:40:50;;;;;;;;;;;4.30;99.90;;;;;;13160097;22;19922;-90
2021/03/22 23:45:51;;;;;;;;;;;5.20;99.90;;;;;;13133970;22;19949;-90
2021/03/22 23:50:54;;;;;;;;;;;6.50;99.90;;;;;;13158389;22;19926;-90
2021/03/22 23:55:55;;;;;;;;;;;3.90;99.90;;;;;;13159629;22;19993;-91
